Погода Алжуштрелна неделю

Бежа, Португалия

19 - 25 июля
  • 19июля
    Сегодня
    +17°
    +38°
    Ясно и безоблачно
    ВремяПогодаТемператураВлажностьДавлениеВетер, м/сВероятность осадков
    01:00Ясно и безоблачно+22°C50 %749 мм2.0 м/с2 %
    04:00Ясно и безоблачно+20°C60 %748 мм1.8 м/с2 %
    07:00Ясно и безоблачно+19°C69 %748 мм1.3 м/с2 %
    10:00Ясно и безоблачно+27°C37 %749 мм1.2 м/с2 %
    13:00Ясно и безоблачно+35°C19 %749 мм1.8 м/с2 %
    16:00Ясно и безоблачно+38°C15 %748 мм2.5 м/с2 %
    19:00Ясно и безоблачно+34°C22 %747 мм5.0 м/с2 %
    22:00Ясно и безоблачно+27°C47 %748 мм4.2 м/с2 %
  • 20июля
    Суббота
    +17°
    +33°
    Ясно и безоблачно
    ВремяПогодаТемператураВлажностьДавлениеВетер, м/сВероятность осадков
    01:00Ясно и безоблачно+21°C70 %748 мм3.4 м/с2 %
    04:00Ясно и безоблачно+18°C91 %747 мм3.0 м/с2 %
    07:00Пасмурно, сплошная облачность+17°C95 %747 мм3.1 м/с2 %
    10:00Ясно и безоблачно+23°C68 %748 мм3.5 м/с2 %
    13:00Ясно и безоблачно+30°C46 %747 мм4.1 м/с2 %
    16:00Ясно и безоблачно+32°C36 %746 мм4.9 м/с2 %
    19:00Ясно и безоблачно+28°C49 %746 мм5.9 м/с2 %
    22:00Ясно и безоблачно+24°C66 %747 мм4.4 м/с2 %
  • 21июля
    Воскресенье
    +14°
    +32°
    Ясно и безоблачно
    ВремяПогодаТемператураВлажностьДавлениеВетер, м/сВероятность осадков
    01:00Ясно и безоблачно+19°C77 %747 мм3.9 м/с2 %
    04:00Ясно и безоблачно+18°C86 %747 мм3.5 м/с2 %
    07:00Ясно и безоблачно+18°C90 %747 мм3.3 м/с2 %
    10:00Ясно и безоблачно+24°C62 %748 мм3.9 м/с2 %
    13:00Ясно и безоблачно+29°C30 %748 мм4.0 м/с2 %
    16:00Ясно и безоблачно+31°C24 %747 мм4.2 м/с2 %
    19:00Ясно и безоблачно+30°C33 %746 мм4.4 м/с2 %
    22:00Ясно и безоблачно+23°C40 %747 мм3.8 м/с2 %
  • 22июля
    Понедельник
    +16°
    +36°
    Ясно и безоблачно
    ВремяПогодаТемператураВлажностьДавлениеВетер, м/сВероятность осадков
    01:00Ясно и безоблачно+17°C59 %747 мм3.1 м/с2 %
    04:00Ясно и безоблачно+15°C75 %746 мм2.3 м/с2 %
    07:00Ясно и безоблачно+14°C85 %747 мм1.8 м/с2 %
    10:00Ясно и безоблачно+21°C58 %747 мм1.2 м/с2 %
    13:00Ясно и безоблачно+32°C30 %747 мм0.9 м/с2 %
    16:00Ясно и безоблачно+35°C24 %746 мм1.5 м/с2 %
    19:00Ясно и безоблачно+34°C29 %746 мм4.6 м/с2 %
    22:00Ясно и безоблачно+24°C50 %747 мм2.6 м/с2 %
  • 23июля
    Вторник
    +18°
    +39°
    Ясно и безоблачно
    ВремяПогодаТемператураВлажностьДавлениеВетер, м/сВероятность осадков
    01:00Ясно и безоблачно+19°C66 %747 мм1.3 м/с2 %
    04:00Ясно и безоблачно+18°C78 %746 мм1.1 м/с2 %
    07:00Ясно и безоблачно+19°C74 %747 мм0.9 м/с2 %
    10:00Ясно и безоблачно+30°C35 %748 мм1.1 м/с2 %
    13:00Ясно и безоблачно+37°C21 %748 мм0.2 м/с2 %
    16:00Ясно и безоблачно+38°C15 %747 мм1.1 м/с2 %
    19:00Ясно и безоблачно+32°C30 %747 мм5.1 м/с2 %
    22:00Ясно и безоблачно+25°C43 %748 мм3.1 м/с2 %
Мы используем cookies
Соглашаюсь